createdAt,value
2022-08-07T00:00:05.531Z,99813.66
2022-08-07T00:01:12.501Z,99813.66
2022-08-07T00:02:37.082Z,99817.59
2022-08-07T00:03:18.247Z,99817.59
2022-08-07T00:04:24.510Z,99822.08
2022-08-07T00:05:25.907Z,99813.66
2022-08-07T00:06:29.613Z,99816.84
2022-08-07T00:07:40.083Z,99818.64
2022-08-07T00:08:37.173Z,99818.64
2022-08-07T00:09:50.201Z,99812.80
2022-08-07T00:10:47.617Z,99816.38
2022-08-07T00:11:55.684Z,99818.03
2022-08-07T00:13:00.224Z,99816.06
2022-08-07T00:13:59.852Z,99815.38
2022-08-07T00:15:01.973Z,99807.03
2022-08-07T00:16:06.455Z,99815.17
2022-08-07T00:17:10.937Z,99809.33
2022-08-07T00:18:19.837Z,99814.80
2022-08-07T00:19:21.795Z,99805.00
2022-08-07T00:20:29.781Z,99813.50
2022-08-07T00:21:56.858Z,99808.02
2022-08-07T00:22:35.776Z,99812.52
2022-08-07T00:23:47.578Z,99813.04
2022-08-07T00:24:50.474Z,99812.72
2022-08-07T00:26:01.599Z,99812.05
2022-08-07T00:27:06.199Z,99813.04
2022-08-07T00:28:02.418Z,99813.20
2022-08-07T00:29:04.910Z,99821.17
2022-08-07T00:30:21.718Z,99812.05
2022-08-07T00:31:16.453Z,99820.02
2022-08-07T00:32:18.379Z,99818.03
2022-08-07T00:33:22.409Z,99818.72
2022-08-07T00:34:28.562Z,99807.11
2022-08-07T00:35:31.433Z,99810.45
2022-08-07T00:36:36.162Z,99821.08
2022-08-07T00:37:47.706Z,99816.75
2022-08-07T00:38:44.426Z,99815.70
2022-08-07T00:39:54.614Z,99817.37
2022-08-07T00:40:50.622Z,99813.73
2022-08-07T00:42:01.665Z,99817.05
2022-08-07T00:43:01.395Z,99825.95
2022-08-07T00:44:03.467Z,99821.75
2022-08-07T00:45:07.408Z,99818.97
2022-08-07T00:46:12.356Z,99819.95
2022-08-07T00:48:08.302Z,99818.97
2022-08-07T00:48:30.824Z,99820.77
2022-08-07T00:50:16.746Z,99822.28
2022-08-07T00:50:46.182Z,99818.80
2022-08-07T00:51:58.190Z,99824.94
2022-08-07T00:52:36.750Z,99820.73
2022-08-07T00:53:50.725Z,99820.86
2022-08-07T00:54:42.713Z,99822.69
2022-08-07T00:56:03.107Z,99820.20
2022-08-07T00:56:50.166Z,99823.44
2022-08-07T00:57:55.805Z,99827.71
2022-08-07T00:58:58.445Z,99825.06
2022-08-07T01:00:02.940Z,99832.01
2022-08-07T01:01:05.197Z,99824.73
2022-08-07T01:02:14.178Z,99825.72
2022-08-07T01:03:13.602Z,99836.05
2022-08-07T01:04:21.781Z,99826.70
2022-08-07T01:05:24.602Z,99837.31
2022-08-07T01:06:28.523Z,99830.05
2022-08-07T01:07:31.564Z,99835.89
2022-08-07T01:08:34.222Z,99828.45
2022-08-07T01:10:04.687Z,99833.61
2022-08-07T01:10:40.721Z,99839.61
2022-08-07T01:12:27.473Z,99831.80
2022-08-07T01:12:53.997Z,99832.78
2022-08-07T01:13:55.519Z,99840.67
2022-08-07T01:15:01.762Z,99831.72
2022-08-07T01:16:06.680Z,99838.70
2022-08-07T01:17:10.124Z,99839.53
2022-08-07T01:18:16.901Z,99835.06
2022-08-07T01:19:19.846Z,99838.38
2022-08-07T01:20:30.800Z,99842.88
2022-08-07T01:21:32.155Z,99833.92
2022-08-07T01:22:37.881Z,99821.09
2022-08-07T01:23:46.658Z,99821.09
2022-08-07T01:24:49.893Z,99833.08
2022-08-07T01:25:55.671Z,99836.71
2022-08-07T01:26:59.289Z,99842.88
2022-08-07T01:28:02.922Z,99836.88
2022-08-07T01:29:06.002Z,99839.84
2022-08-07T01:30:11.332Z,99844.30
2022-08-07T01:31:15.467Z,99846.88
2022-08-07T01:32:19.737Z,99843.55
2022-08-07T01:33:24.350Z,99842.70
2022-08-07T01:34:31.378Z,99839.23
2022-08-07T01:35:36.882Z,99839.92
2022-08-07T01:36:40.841Z,99839.23
2022-08-07T01:37:45.935Z,99843.84
2022-08-07T01:38:48.538Z,99842.17
2022-08-07T01:39:56.176Z,99843.02
2022-08-07T01:41:05.509Z,99840.20
2022-08-07T01:42:38.393Z,99834.61
2022-08-07T01:43:13.874Z,99834.61
2022-08-07T01:44:17.846Z,99843.23
2022-08-07T01:45:33.140Z,99837.39
2022-08-07T01:46:29.258Z,99841.88
2022-08-07T01:48:19.533Z,99838.00
2022-08-07T01:48:41.032Z,99844.16
2022-08-07T01:49:43.921Z,99841.88
2022-08-07T01:50:55.701Z,99842.70
2022-08-07T01:52:04.895Z,99833.76
2022-08-07T01:53:08.913Z,99841.27
2022-08-07T01:54:33.340Z,99834.98
2022-08-07T01:55:24.099Z,99832.01
2022-08-07T01:56:30.964Z,99837.31
2022-08-07T01:58:05.531Z,99838.02
2022-08-07T01:58:48.309Z,99841.36
2022-08-07T02:00:03.750Z,99832.86
2022-08-07T02:01:58.862Z,99839.16
2022-08-07T02:02:32.752Z,99841.56
2022-08-07T02:03:42.794Z,99836.13
2022-08-07T02:04:52.676Z,99836.25
2022-08-07T02:05:59.642Z,99837.92
2022-08-07T02:07:00.728Z,99834.29
2022-08-07T02:08:07.323Z,99840.45
2022-08-07T02:09:52.461Z,99837.92
2022-08-07T02:10:26.045Z,99835.43
2022-08-07T02:12:02.876Z,99835.59
2022-08-07T02:12:40.343Z,99827.63
2022-08-07T02:13:57.801Z,99839.06
2022-08-07T02:14:55.251Z,99837.17
2022-08-07T02:16:11.815Z,99841.79
2022-08-07T02:17:24.725Z,99833.00
2022-08-07T02:18:22.400Z,99831.02
2022-08-07T02:20:07.016Z,99837.84
2022-08-07T02:20:32.966Z,99829.88
2022-08-07T02:21:55.452Z,99836.20
2022-08-07T02:22:43.992Z,99837.17
2022-08-07T02:23:49.201Z,99831.49
2022-08-07T02:24:55.296Z,99846.41
2022-08-07T02:26:30.605Z,99837.08
2022-08-07T02:27:04.553Z,99847.55
2022-08-07T02:28:07.944Z,99844.89
2022-08-07T02:29:13.816Z,99843.75
2022-08-07T02:30:19.328Z,99837.78
2022-08-07T02:31:28.637Z,99835.66
2022-08-07T02:32:30.209Z,99835.66
2022-08-07T02:33:57.246Z,99840.66
2022-08-07T02:34:48.927Z,99840.49
2022-08-07T02:36:30.727Z,99844.16
2022-08-07T02:36:53.025Z,99842.17
2022-08-07T02:37:57.457Z,99840.49
2022-08-07T02:39:16.230Z,99837.17
2022-08-07T02:40:30.009Z,99844.45
2022-08-07T02:41:14.249Z,99839.83
2022-08-07T02:42:20.565Z,99842.17
2022-08-07T02:43:27.604Z,99838.53
2022-08-07T02:44:34.306Z,99838.53
2022-08-07T02:45:58.462Z,99843.02
2022-08-07T02:46:46.571Z,99847.34
2022-08-07T02:47:49.403Z,99841.34
2022-08-07T02:48:55.113Z,99843.84
2022-08-07T02:49:59.669Z,99844.38
2022-08-07T02:51:03.637Z,99841.56
2022-08-07T02:52:10.057Z,99845.23
2022-08-07T02:53:18.762Z,99845.23
2022-08-07T02:54:25.273Z,99844.91
2022-08-07T02:56:04.105Z,99848.26
2022-08-07T02:56:38.989Z,99855.24
2022-08-07T02:57:44.487Z,99850.22
2022-08-07T02:58:54.219Z,99848.55
2022-08-07T03:00:01.272Z,99848.55
2022-08-07T03:01:16.038Z,99855.53
2022-08-07T03:02:14.001Z,99845.89
2022-08-07T03:03:22.644Z,99847.56
2022-08-07T03:04:23.548Z,99844.91
2022-08-07T03:05:35.743Z,99843.93
2022-08-07T03:06:34.590Z,99843.23
2022-08-07T03:08:04.946Z,99837.92
2022-08-07T03:08:45.171Z,99846.74
2022-08-07T03:09:51.972Z,99843.23
2022-08-07T03:10:52.873Z,99841.27
2022-08-07T03:12:02.737Z,99850.91
2022-08-07T03:13:06.266Z,99844.91
2022-08-07T03:14:11.785Z,99848.55
2022-08-07T03:15:14.044Z,99843.55
2022-08-07T03:16:22.992Z,99850.54
2022-08-07T03:17:25.121Z,99854.84
2022-08-07T03:18:34.652Z,99846.34
2022-08-07T03:19:36.969Z,99850.83
2022-08-07T03:20:41.354Z,99849.15
2022-08-07T03:21:50.509Z,99847.48
2022-08-07T03:22:50.536Z,99854.62
2022-08-07T03:24:19.444Z,99853.10
2022-08-07T03:25:03.219Z,99849.75
2022-08-07T03:26:21.045Z,99849.75
2022-08-07T03:27:30.695Z,99851.71
2022-08-07T03:28:38.147Z,99851.05
2022-08-07T03:29:33.686Z,99852.03
2022-08-07T03:30:38.252Z,99852.03
2022-08-07T03:31:46.485Z,99852.85
2022-08-07T03:32:57.136Z,99851.71
2022-08-07T03:33:59.680Z,99853.39
2022-08-07T03:35:17.674Z,99858.70
2022-08-07T03:36:13.250Z,99855.66
2022-08-07T03:37:20.677Z,99848.68
2022-08-07T03:38:29.615Z,99856.48
2022-08-07T03:39:59.491Z,99855.66
2022-08-07T03:40:36.910Z,99853.70
2022-08-07T03:41:47.481Z,99863.72
2022-08-07T03:42:46.033Z,99856.13
2022-08-07T03:43:57.411Z,99856.67
2022-08-07T03:44:58.028Z,99857.90
2022-08-07T03:46:18.110Z,99856.59
2022-08-07T03:47:13.989Z,99861.63
2022-08-07T03:48:15.446Z,99856.68
2022-08-07T03:49:17.944Z,99855.38
2022-08-07T03:50:23.087Z,99850.77
2022-08-07T03:51:30.681Z,99855.09
2022-08-07T03:52:32.474Z,99860.08
2022-08-07T03:54:33.448Z,99859.79
2022-08-07T03:54:54.314Z,99861.75
2022-08-07T03:55:58.365Z,99863.43
2022-08-07T03:57:03.309Z,99862.61
2022-08-07T03:58:32.542Z,99856.16
2022-08-07T03:59:13.437Z,99857.50
2022-08-07T04:00:17.359Z,99859.88
2022-08-07T04:01:24.776Z,99857.22
2022-08-07T04:02:28.161Z,99855.22
2022-08-07T04:03:49.885Z,99858.56
2022-08-07T04:04:37.252Z,99868.20
2022-08-07T04:05:42.298Z,99869.72
2022-08-07T04:06:50.795Z,99864.94
2022-08-07T04:07:56.019Z,99863.82
2022-08-07T04:09:01.932Z,99867.70
2022-08-07T04:10:06.048Z,99864.05
2022-08-07T04:12:15.690Z,99863.73
2022-08-07T04:12:27.199Z,99873.08
2022-08-07T04:13:27.635Z,99866.61
2022-08-07T04:14:37.299Z,99867.44
2022-08-07T04:15:34.162Z,99868.12
2022-08-07T04:16:40.344Z,99869.64
2022-08-07T04:18:56.602Z,99867.80
2022-08-07T04:18:58.977Z,99866.69
2022-08-07T04:19:54.673Z,99864.55
2022-08-07T04:21:00.307Z,99865.20
2022-08-07T04:22:07.792Z,99869.38
2022-08-07T04:23:09.849Z,99862.91
2022-08-07T04:24:33.570Z,99865.20
2022-08-07T04:25:29.181Z,99870.00
2022-08-07T04:26:29.738Z,99869.17
2022-08-07T04:27:39.239Z,99877.84
2022-08-07T04:28:42.265Z,99870.00
2022-08-07T04:30:01.718Z,99873.11
2022-08-07T04:30:55.635Z,99876.79
2022-08-07T04:32:03.405Z,99872.39
2022-08-07T04:33:09.819Z,99876.72
2022-08-07T04:34:17.275Z,99878.07
2022-08-07T04:35:21.502Z,99871.47
2022-08-07T04:36:26.277Z,99873.11
2022-08-07T04:37:31.394Z,99874.49
2022-08-07T04:38:36.542Z,99874.16
2022-08-07T04:39:40.589Z,99867.73
2022-08-07T04:40:52.555Z,99876.52
2022-08-07T04:41:51.066Z,99872.55
2022-08-07T04:42:54.927Z,99872.88
2022-08-07T04:44:12.241Z,99864.55
2022-08-07T04:45:08.510Z,99877.84
2022-08-07T04:46:20.235Z,99874.85
2022-08-07T04:47:58.856Z,99869.38
2022-08-07T04:48:53.750Z,99872.20
2022-08-07T04:50:07.523Z,99869.77
2022-08-07T04:51:19.724Z,99876.36
2022-08-07T04:52:36.719Z,99874.61
2022-08-07T04:54:01.330Z,99872.48
2022-08-07T04:54:59.107Z,99878.00
2022-08-07T04:58:10.084Z,99881.73
2022-08-07T04:58:14.999Z,99876.88
2022-08-07T04:59:17.004Z,99873.63
2022-08-07T05:00:09.696Z,99879.37
2022-08-07T05:01:17.310Z,99878.43
2022-08-07T05:02:42.772Z,99874.13
2022-08-07T05:04:08.352Z,99879.81
2022-08-07T05:05:52.950Z,99881.94
2022-08-07T05:06:43.497Z,99882.92
2022-08-07T05:07:55.431Z,99884.17
2022-08-07T05:09:04.944Z,99887.41
2022-08-07T05:10:26.400Z,99879.72
2022-08-07T05:11:56.892Z,99889.42
2022-08-07T05:12:46.249Z,99884.31
2022-08-07T05:14:55.367Z,99882.83
2022-08-07T05:15:14.454Z,99892.70
2022-08-07T05:16:22.202Z,99897.20
2022-08-07T05:17:52.391Z,99886.39
2022-08-07T05:18:37.495Z,99897.42
2022-08-07T05:19:46.666Z,99892.61
2022-08-07T05:20:53.549Z,99892.61
2022-08-07T05:22:01.823Z,99888.28
2022-08-07T05:23:15.763Z,99893.43
2022-08-07T05:24:15.385Z,99893.27
2022-08-07T05:25:37.376Z,99898.75
2022-08-07T05:26:27.069Z,99894.59
2022-08-07T05:28:02.672Z,99898.23
2022-08-07T05:28:40.585Z,99895.58
2022-08-07T05:29:51.142Z,99899.91
2022-08-07T05:30:53.817Z,99896.26
2022-08-07T05:31:56.951Z,99898.75
2022-08-07T05:33:03.479Z,99894.28
2022-08-07T05:34:12.456Z,99895.41
2022-08-07T05:35:23.500Z,99897.89
2022-08-07T05:36:30.613Z,99896.91
2022-08-07T05:37:31.136Z,99892.92
2022-08-07T05:39:00.606Z,99897.94
2022-08-07T05:40:05.414Z,99891.11
2022-08-07T05:40:51.503Z,99894.66
2022-08-07T05:42:02.882Z,99894.66
2022-08-07T05:43:01.834Z,99894.70
2022-08-07T05:44:12.769Z,99889.09
2022-08-07T05:45:26.148Z,99896.09
2022-08-07T05:46:20.180Z,99897.08
2022-08-07T05:48:00.075Z,99897.19
2022-08-07T05:48:30.086Z,99900.56
2022-08-07T05:49:41.101Z,99891.75
2022-08-07T05:50:42.842Z,99894.92
2022-08-07T05:51:47.125Z,99889.37
2022-08-07T05:52:51.518Z,99898.69
2022-08-07T05:54:13.487Z,99902.14
2022-08-07T05:54:58.615Z,99897.33
2022-08-07T05:56:06.113Z,99894.29
2022-08-07T05:57:08.543Z,99893.64
2022-08-07T05:58:12.684Z,99901.25
2022-08-07T05:59:19.325Z,99902.58
2022-08-07T06:00:26.183Z,99903.26
2022-08-07T06:01:35.932Z,99898.92
2022-08-07T06:02:39.487Z,99903.90
2022-08-07T06:03:56.754Z,99898.23
2022-08-07T06:04:57.643Z,99899.91
2022-08-07T06:06:01.064Z,99908.58
2022-08-07T06:07:05.843Z,99904.92
2022-08-07T06:08:29.341Z,99909.91
2022-08-07T06:09:17.127Z,99904.59
2022-08-07T06:10:22.143Z,99911.25
2022-08-07T06:11:25.850Z,99904.94
2022-08-07T06:12:33.192Z,99894.45
2022-08-07T06:14:12.014Z,99899.47
2022-08-07T06:14:37.322Z,99906.95
2022-08-07T06:15:42.484Z,99904.97
2022-08-07T06:16:50.216Z,99901.32
2022-08-07T06:17:55.360Z,99909.65
2022-08-07T06:19:01.322Z,99913.30
2022-08-07T06:20:05.703Z,99908.48
2022-08-07T06:22:16.971Z,99913.50
2022-08-07T06:22:24.075Z,99912.06
2022-08-07T06:23:46.506Z,99906.91
2022-08-07T06:24:46.346Z,99908.09
2022-08-07T06:25:34.718Z,99906.76
2022-08-07T06:26:34.743Z,99910.09
2022-08-07T06:28:00.434Z,99914.92
2022-08-07T06:28:57.385Z,99916.73
2022-08-07T06:30:03.926Z,99906.45
2022-08-07T06:31:06.651Z,99917.44
2022-08-07T06:32:08.504Z,99915.45
2022-08-07T06:33:16.059Z,99910.13
2022-08-07T06:34:25.573Z,99912.13
2022-08-07T06:35:38.996Z,99908.13
2022-08-07T06:36:35.780Z,99911.13
2022-08-07T06:37:43.495Z,99918.63
2022-08-07T06:38:58.395Z,99913.30
2022-08-07T06:40:17.019Z,99912.13
2022-08-07T06:40:55.913Z,99909.82
2022-08-07T06:42:18.478Z,99913.48
2022-08-07T06:43:25.665Z,99912.14
2022-08-07T06:44:51.103Z,99913.63
2022-08-07T06:45:50.652Z,99915.97
2022-08-07T06:47:12.311Z,99913.13
2022-08-07T06:47:59.927Z,99907.48
2022-08-07T06:49:07.731Z,99911.64
2022-08-07T06:50:14.288Z,99914.48
2022-08-07T06:51:31.098Z,99913.14
2022-08-07T06:52:31.383Z,99913.14
2022-08-07T06:55:29.987Z,99906.49
2022-08-07T06:55:33.377Z,99906.17
2022-08-07T06:55:53.677Z,99911.33
2022-08-07T06:56:52.200Z,99907.84
2022-08-07T06:58:06.538Z,99913.00
2022-08-07T07:00:14.350Z,99904.68
2022-08-07T07:00:38.201Z,99913.67
2022-08-07T07:01:48.729Z,99909.84
2022-08-07T07:02:54.222Z,99907.67
2022-08-07T07:03:57.208Z,99903.65
2022-08-07T07:04:58.866Z,99908.31
2022-08-07T07:06:06.274Z,99903.47
2022-08-07T07:07:10.794Z,99897.00
2022-08-07T07:08:18.220Z,99905.14
2022-08-07T07:09:26.037Z,99906.14
2022-08-07T07:10:32.635Z,99900.98
2022-08-07T07:12:07.968Z,99905.50
2022-08-07T07:12:53.366Z,99910.66
2022-08-07T07:14:01.457Z,99905.64
2022-08-07T07:15:26.021Z,99909.30
2022-08-07T07:16:30.547Z,99904.31
2022-08-07T07:17:45.165Z,99906.45
2022-08-07T07:18:50.794Z,99904.28
2022-08-07T07:19:59.128Z,99906.44
2022-08-07T07:21:13.614Z,99904.94
2022-08-07T07:22:37.024Z,99907.09
2022-08-07T07:24:06.491Z,99910.90
2022-08-07T07:24:21.547Z,99902.58
2022-08-07T07:26:34.133Z,99909.95
2022-08-07T07:26:36.831Z,99913.45
2022-08-07T07:28:02.156Z,99914.61
2022-08-07T07:29:28.586Z,99916.10
2022-08-07T07:30:09.294Z,99907.91
2022-08-07T07:31:21.630Z,99919.77
2022-08-07T07:32:24.210Z,99922.75
2022-08-07T07:33:29.882Z,99917.41
2022-08-07T07:34:37.751Z,99920.75
2022-08-07T07:36:04.819Z,99920.45
2022-08-07T07:36:52.659Z,99922.45
2022-08-07T07:38:02.568Z,99920.27
2022-08-07T07:39:03.639Z,99923.77
2022-08-07T07:40:10.200Z,99922.77
2022-08-07T07:41:16.443Z,99922.08
2022-08-07T07:42:21.882Z,99919.08
2022-08-07T07:43:47.820Z,99915.41
2022-08-07T07:44:35.286Z,99924.39
2022-08-07T07:46:37.326Z,99918.51
2022-08-07T07:46:57.249Z,99927.67
2022-08-07T07:47:52.835Z,99930.16
2022-08-07T07:49:00.297Z,99931.50
2022-08-07T07:50:35.100Z,99920.45
2022-08-07T07:51:08.771Z,99920.76
2022-08-07T07:52:12.582Z,99926.43
2022-08-07T07:53:23.221Z,99926.25
2022-08-07T07:54:24.328Z,99920.20
2022-08-07T07:55:37.077Z,99926.70
2022-08-07T07:56:35.985Z,99923.53
2022-08-07T07:57:44.048Z,99933.85
2022-08-07T07:58:46.988Z,99922.83
2022-08-07T07:59:53.847Z,99923.17
2022-08-07T08:00:58.730Z,99919.49
2022-08-07T08:02:10.242Z,99927.47
2022-08-07T08:03:16.616Z,99929.61
2022-08-07T08:04:20.202Z,99927.23
2022-08-07T08:05:24.918Z,99919.33
2022-08-07T08:06:31.027Z,99923.95
2022-08-07T08:07:42.436Z,99925.47
2022-08-07T08:08:42.747Z,99918.93
2022-08-07T08:09:52.343Z,99927.77
2022-08-07T08:10:52.269Z,99919.56
2022-08-07T08:12:02.837Z,99918.21
2022-08-07T08:13:02.955Z,99919.88
2022-08-07T08:14:06.909Z,99923.31
2022-08-07T08:15:15.224Z,99923.63
2022-08-07T08:16:25.076Z,99925.77
2022-08-07T08:17:57.160Z,99918.03
2022-08-07T08:18:33.861Z,99919.98
2022-08-07T08:20:18.223Z,99917.23
2022-08-07T08:20:47.941Z,99916.78
2022-08-07T08:22:02.719Z,99920.04
2022-08-07T08:23:00.210Z,99915.97
2022-08-07T08:24:06.451Z,99916.44
2022-08-07T08:25:26.303Z,99919.42
2022-08-07T08:26:20.460Z,99916.84
2022-08-07T08:27:26.431Z,99916.21
2022-08-07T08:28:38.242Z,99916.94
2022-08-07T08:29:55.933Z,99915.45
2022-08-07T08:30:55.976Z,99915.61
2022-08-07T08:32:17.008Z,99915.31
2022-08-07T08:33:15.237Z,99910.15
2022-08-07T08:34:27.050Z,99911.34
2022-08-07T08:35:28.829Z,99904.31
2022-08-07T08:36:34.814Z,99908.80
2022-08-07T08:37:59.680Z,99907.55
2022-08-07T08:38:46.536Z,99906.02
2022-08-07T08:39:54.994Z,99901.17
2022-08-07T08:40:59.243Z,99902.47
2022-08-07T08:42:19.038Z,99897.58
2022-08-07T08:43:56.205Z,99903.83
2022-08-07T08:45:41.880Z,99894.39
2022-08-07T08:47:10.062Z,99895.64
2022-08-07T08:48:35.966Z,99895.55
2022-08-07T08:50:05.973Z,99891.53
2022-08-07T08:51:29.611Z,99893.34
2022-08-07T08:52:36.001Z,99894.69
2022-08-07T08:54:00.006Z,99897.98
2022-08-07T08:55:21.029Z,99893.09
2022-08-07T08:56:29.443Z,99892.68
2022-08-07T08:57:50.947Z,99892.15
2022-08-07T08:59:12.764Z,99888.68
2022-08-07T09:00:12.946Z,99882.98
2022-08-07T09:01:43.692Z,99889.31
2022-08-07T09:03:07.540Z,99888.10
2022-08-07T09:04:26.093Z,99886.86
2022-08-07T09:05:42.277Z,99885.03
2022-08-07T09:07:00.693Z,99880.30
2022-08-07T09:08:06.380Z,99883.17
2022-08-07T09:09:23.579Z,99876.16
2022-08-07T09:10:35.302Z,99881.11
2022-08-07T09:11:53.291Z,99885.03
2022-08-07T09:13:14.686Z,99873.20
2022-08-07T09:14:33.245Z,99874.00
2022-08-07T09:16:20.174Z,99874.00
2022-08-07T09:17:14.991Z,99871.20
2022-08-07T09:18:47.356Z,99879.69
2022-08-07T09:20:30.712Z,99882.27
2022-08-07T09:22:22.389Z,99886.59
2022-08-07T09:24:32.441Z,99895.23
2022-08-07T09:24:33.139Z,99904.09
2022-08-07T09:25:27.031Z,99911.73
2022-08-07T09:26:57.052Z,99921.27
2022-08-07T09:30:03.321Z,99965.81
2022-08-07T09:30:04.786Z,99935.84
2022-08-07T09:30:46.738Z,99998.91
2022-08-07T09:32:17.150Z,99997.14
2022-08-07T09:33:52.814Z,100013.87
2022-08-07T09:34:58.971Z,99996.32
2022-08-07T09:36:12.767Z,99985.37
2022-08-07T09:37:48.288Z,99971.61
2022-08-07T09:38:50.177Z,99956.28
2022-08-07T09:40:03.432Z,99955.03
2022-08-07T09:42:50.428Z,99953.85
2022-08-07T09:44:06.914Z,99940.78
2022-08-07T09:47:26.254Z,99930.73
2022-08-07T09:47:55.666Z,99938.84
2022-08-07T09:48:14.597Z,99932.14
2022-08-07T09:50:01.045Z,99927.55
2022-08-07T09:52:53.844Z,99926.02
2022-08-07T09:54:02.664Z,99948.34
2022-08-07T09:55:10.472Z,99960.59
2022-08-07T09:56:47.893Z,99953.88
2022-08-07T09:58:17.957Z,99964.95
2022-08-07T10:00:01.212Z,99972.16
2022-08-07T10:01:51.843Z,99973.86
2022-08-07T10:02:56.411Z,99976.42
2022-08-07T10:04:28.162Z,99971.05
2022-08-07T10:05:59.860Z,99961.88
2022-08-07T10:07:06.550Z,99944.94
2022-08-07T10:08:51.246Z,99939.09
2022-08-07T10:10:21.927Z,99939.36
2022-08-07T10:12:02.144Z,99937.26
2022-08-07T10:12:55.586Z,99935.48
2022-08-07T10:14:23.018Z,99927.25
2022-08-07T10:15:44.204Z,99922.39
2022-08-07T10:17:10.583Z,99920.14
2022-08-07T10:18:20.762Z,99917.56
2022-08-07T10:19:57.360Z,99917.13
2022-08-07T10:22:15.036Z,99908.81
2022-08-07T10:23:13.011Z,99913.89
2022-08-07T10:24:39.687Z,99902.84
2022-08-07T10:25:53.077Z,99904.17
2022-08-07T10:27:20.242Z,99900.38
2022-08-07T10:28:37.115Z,99891.77
2022-08-07T10:30:06.842Z,99897.62
2022-08-07T10:31:38.521Z,99887.88
2022-08-07T10:32:59.966Z,99889.80
2022-08-07T10:34:17.950Z,99882.34
2022-08-07T10:35:55.567Z,99887.23
2022-08-07T10:36:37.674Z,99886.61
2022-08-07T10:38:21.224Z,99881.37
2022-08-07T10:39:41.344Z,99877.80
2022-08-07T10:40:35.921Z,99883.06
2022-08-07T10:41:51.941Z,99874.34
2022-08-07T10:42:54.404Z,99878.65
2022-08-07T10:44:09.061Z,99878.03
2022-08-07T10:45:57.697Z,99888.08
2022-08-07T10:46:33.230Z,99889.38
2022-08-07T10:48:03.076Z,99881.61
2022-08-07T10:49:24.528Z,99890.73
2022-08-07T10:50:39.002Z,99899.33
2022-08-07T10:52:01.672Z,99893.63
2022-08-07T10:53:07.927Z,99882.34
2022-08-07T10:54:18.867Z,99884.92
2022-08-07T10:55:38.158Z,99883.25
2022-08-07T10:56:56.045Z,99888.48
2022-08-07T10:58:36.661Z,99881.51
2022-08-07T10:59:47.895Z,99884.14
2022-08-07T11:00:56.102Z,99883.98
2022-08-07T11:02:12.562Z,99887.88
2022-08-07T11:03:37.607Z,99886.48
2022-08-07T11:04:54.050Z,99891.91
2022-08-07T11:06:18.269Z,99885.37
2022-08-07T11:07:59.182Z,99894.89
2022-08-07T11:09:11.345Z,99888.23
2022-08-07T11:10:14.671Z,99876.56
2022-08-07T11:11:37.684Z,99877.72
2022-08-07T11:12:49.721Z,99882.83
2022-08-07T11:14:44.469Z,99880.70
2022-08-07T11:15:09.614Z,99871.92
2022-08-07T11:16:25.628Z,99869.80
2022-08-07T11:17:45.090Z,99869.11
2022-08-07T11:18:51.088Z,99869.47
2022-08-07T11:19:57.953Z,99863.86
2022-08-07T11:21:09.500Z,99871.89
2022-08-07T11:22:32.522Z,99874.29
2022-08-07T11:23:56.206Z,99871.69
2022-08-07T11:25:06.729Z,99867.07
2022-08-07T11:26:15.964Z,99869.52
2022-08-07T11:28:01.390Z,99862.58
2022-08-07T11:28:55.662Z,99864.97
2022-08-07T11:30:17.890Z,99867.72
2022-08-07T11:31:26.765Z,99862.52
2022-08-07T11:32:57.220Z,99858.02
2022-08-07T11:34:05.782Z,99856.86
2022-08-07T11:35:16.631Z,99857.92
2022-08-07T11:36:35.991Z,99848.41
2022-08-07T11:38:12.741Z,99853.70
2022-08-07T11:39:09.970Z,99844.77
2022-08-07T11:40:53.262Z,99845.14
2022-08-07T11:42:02.780Z,99852.27
2022-08-07T11:43:41.274Z,99847.72
2022-08-07T11:44:51.982Z,99853.26
2022-08-07T11:46:07.325Z,99850.50
2022-08-07T11:47:56.132Z,99856.00
2022-08-07T11:49:50.346Z,99854.16
2022-08-07T11:50:36.841Z,99859.38
2022-08-07T11:52:10.485Z,99860.64
2022-08-07T11:53:43.304Z,99852.91
2022-08-07T11:55:18.584Z,99849.88
2022-08-07T11:56:26.769Z,99858.23
2022-08-07T11:58:00.820Z,99853.73
2022-08-07T11:59:00.365Z,99851.94
2022-08-07T12:00:19.788Z,99842.58
2022-08-07T12:02:00.576Z,99829.02
2022-08-07T12:03:05.882Z,99821.94
2022-08-07T12:04:28.248Z,99823.69
2022-08-07T12:07:26.914Z,99843.41
2022-08-07T12:08:38.708Z,99848.70
2022-08-07T12:09:49.574Z,99855.34
2022-08-07T12:11:20.094Z,99862.95
2022-08-07T12:12:11.573Z,99865.22
2022-08-07T12:13:37.065Z,99874.39
2022-08-07T12:14:34.094Z,99863.95
2022-08-07T12:16:07.034Z,99878.43
2022-08-07T12:16:55.335Z,99873.81
2022-08-07T12:18:08.120Z,99879.20
2022-08-07T12:19:23.017Z,99886.13
2022-08-07T12:20:32.347Z,99880.78
2022-08-07T12:22:36.393Z,99870.70
2022-08-07T12:25:07.531Z,99865.47
2022-08-07T12:26:30.002Z,99869.11
2022-08-07T12:28:08.721Z,99872.45
2022-08-07T12:28:53.183Z,99866.64
2022-08-07T12:29:58.312Z,99872.69
2022-08-07T12:31:09.408Z,99877.63
2022-08-07T12:32:31.729Z,99878.75
2022-08-07T12:34:00.611Z,99878.75
2022-08-07T12:34:42.503Z,99872.98
2022-08-07T12:35:58.185Z,99884.98
2022-08-07T12:36:57.540Z,99891.65
2022-08-07T12:38:11.531Z,99890.52
2022-08-07T12:39:09.270Z,99894.53
2022-08-07T12:40:44.946Z,99898.12
2022-08-07T12:41:22.512Z,99909.58
2022-08-07T12:42:32.164Z,99916.07
2022-08-07T12:44:03.586Z,99919.42
2022-08-07T12:44:44.976Z,99921.85
2022-08-07T12:46:26.369Z,99924.53
2022-08-07T12:47:49.292Z,99925.12
2022-08-07T12:49:10.233Z,99918.56
2022-08-07T12:50:34.490Z,99923.75
2022-08-07T12:51:46.408Z,99923.20
2022-08-07T12:52:52.226Z,99917.47
2022-08-07T12:54:37.095Z,99925.94
2022-08-07T12:55:40.642Z,99926.22
2022-08-07T12:56:39.792Z,99922.04
2022-08-07T12:58:00.437Z,99915.45
2022-08-07T12:58:53.209Z,99920.36
2022-08-07T13:00:01.983Z,99921.49
2022-08-07T13:02:49.367Z,99902.19
2022-08-07T13:04:09.836Z,99914.27
2022-08-07T13:06:02.578Z,99916.22
2022-08-07T13:07:21.299Z,99907.95
2022-08-07T13:08:40.664Z,99912.86
2022-08-07T13:10:21.396Z,99911.16
2022-08-07T13:11:24.558Z,99914.27
2022-08-07T13:12:50.410Z,99919.84
2022-08-07T13:14:15.747Z,99925.17
2022-08-07T13:15:48.631Z,99923.20
2022-08-07T13:17:12.525Z,99924.31
2022-08-07T13:18:53.830Z,99928.25
2022-08-07T13:20:18.562Z,99929.38
2022-08-07T13:21:50.194Z,99927.54
2022-08-07T13:22:42.908Z,99945.54
2022-08-07T13:24:00.608Z,99942.34
2022-08-07T13:25:15.140Z,99952.23
2022-08-07T13:26:28.797Z,99949.70
2022-08-07T13:28:10.904Z,99948.47
2022-08-07T13:28:45.149Z,99944.71
2022-08-07T13:30:03.613Z,99953.08
2022-08-07T13:31:16.080Z,99954.61
2022-08-07T13:32:31.303Z,99959.75
2022-08-07T13:34:31.337Z,99948.03
2022-08-07T13:34:59.166Z,99951.94
2022-08-07T13:36:17.471Z,99960.15
2022-08-07T13:37:43.096Z,99970.06
2022-08-07T13:39:12.662Z,99963.07
2022-08-07T13:40:35.301Z,99970.45
2022-08-07T13:41:32.181Z,99973.58
2022-08-07T13:42:39.695Z,99975.20
2022-08-07T13:43:44.534Z,99970.27
2022-08-07T13:45:11.512Z,99981.52
2022-08-07T13:46:11.225Z,99982.45
2022-08-07T13:47:09.424Z,99990.91
2022-08-07T13:48:27.885Z,99982.53
2022-08-07T13:50:33.522Z,99980.47
2022-08-07T13:50:33.872Z,99981.62
2022-08-07T13:52:05.237Z,99980.71
2022-08-07T13:52:41.114Z,99981.48
2022-08-07T13:53:59.364Z,99978.25
2022-08-07T13:54:59.140Z,99978.91